Renovo, PA (17764)

11:45 AM EDT on August 22, 2014 (GMT -0400)
RAWS COFFIN ROCK PA US | Change Station
CLOSE
Current Station
Personal Weather Station
Location: Renovo, PA
Elevation: 2336 ft
Nearby Weather Stations

Elev 2336 ft 41.24 °N, 77.75 °W | Updated 29 minutes ago

Overcast
Overcast
72.0 °F
Feels Like 70 °F
N
0.0
Wind Variable Wind from North
Gusts 0.0 mph

Today
High -- | Low -- °F
--% Chance of Precip.
Yesterday
High -- | Low -- °F
Precip. -- in
6:27 AM 7:59 PM
Waning Crescent, 8% visible
Pressure 30.03 in
Visibility 7.0 miles
Clouds Mostly Cloudy 1700 ft
Overcast 3900 ft
Heat Index 70 °F
Dew Point 68.0 °F
Humidity 88%
Rainfall 0.00 in
Snow Depth Not available.
UV 2 out of 12
Pollen 9.10 out of 12
Air Quality Not available.
Flu Activity Not available.
METAR KUNV 221453Z 00000KT 7SM BKN017 OVC039 24/20 A3003

More Conditions Fewer Conditions

Pressure 30.03 in
Visibility 7.0 miles
Clouds Mostly Cloudy 1700 ft
Overcast 3900 ft
Heat Index 70 °F
Dew Point 68.0 °F
Humidity 88%
Rainfall 0.00 in
Snow Depth Not available.
UV 2 out of 12
Pollen 9.10 out of 12
Air Quality Not available.
Flu Activity Not available.
METAR KUNV 221453Z 00000KT 7SM BKN017 OVC039 24/20 A3003

More Conditions Fewer Conditions

Nowcast | as of 11:09 am EDT on August 22, 2014

Scattered showers will develop and become more numerous through early afternoon...with a few thunderstorms expected to develop as well by 1 PM.

×

10-Day Weather Forecast

Almanac

Astronomy

Aug. 22, 2014 Rise Set
Actual Time 6:27 AM EDT 7:59 PM EDT
Civil Twilight 5:58 AM EDT 8:28 PM EDT
Nautical Twilight 5:22 AM EDT 9:03 PM EDT
Astronomical Twilight 4:45 AM EDT 9:40 PM EDT
Moon 3:47 AM EDT 6:07 PM EDT
Length of Visible Light 14h 30m
Length of Day
13h 32m
Tomorrow will be 2m 32s shorter.
Waning Crescent, 8% of the Moon is Illuminated
Today
Waning Crescent
Aug 25
New
Sep 2
First Quarter
Sep 8
Full
Sep 15
Last Quarter

Today's Extremes

State Highs State Lows

Community

WunderPhotos

Upload Photos

1,746,188 photos uploaded!

Nearby

Snow Depth

Station Depth Elevation
No new snow has been reported.

Earthquake Activity

City Distance Mag. Time & Date
No recent earthquake activity has been reported nearby.
Minimum magnitude displayed is 2.5.

Coastal Water Temperatures

Place Temperature
No Stations Reporting

Nearby Weather Stations